createdAt,value
2023-04-18T00:01:40.252Z,16.70
2023-04-18T00:03:45.872Z,14.20
2023-04-18T00:05:49.969Z,13.80
2023-04-18T00:07:53.465Z,12.60
2023-04-18T00:09:58.484Z,15.80
2023-04-18T00:12:03.124Z,23.10
2023-04-18T00:14:06.965Z,22.00
2023-04-18T00:16:10.035Z,18.70
2023-04-18T00:18:17.236Z,9.60
2023-04-18T00:20:20.317Z,15.80
2023-04-18T00:22:23.533Z,18.00
2023-04-18T00:24:26.408Z,20.00
2023-04-18T00:26:29.199Z,17.00
2023-04-18T00:28:32.776Z,18.20
2023-04-18T00:30:35.710Z,20.70
2023-04-18T00:32:40.987Z,21.50
2023-04-18T00:34:44.632Z,18.60
2023-04-18T00:36:49.279Z,18.40
2023-04-18T00:38:52.527Z,16.80
2023-04-18T00:40:55.611Z,18.60
2023-04-18T00:42:58.798Z,20.10
2023-04-18T00:45:02.127Z,15.70
2023-04-18T00:47:04.868Z,17.60
2023-04-18T00:49:08.456Z,17.30
2023-04-18T00:51:12.373Z,17.60
2023-04-18T00:53:15.715Z,15.80
2023-04-18T00:55:20.679Z,14.70
2023-04-18T00:57:24.795Z,18.90
2023-04-18T00:59:27.767Z,17.50
2023-04-18T01:01:30.990Z,16.20
2023-04-18T01:03:35.500Z,19.30
2023-04-18T01:05:40.392Z,14.30
2023-04-18T01:07:47.735Z,18.20
2023-04-18T01:09:53.563Z,17.90
2023-04-18T01:14:07.277Z,12.80
2023-04-18T01:16:13.339Z,15.40
2023-04-18T01:18:18.576Z,18.20
2023-04-18T01:20:24.629Z,15.80
2023-04-18T01:22:33.976Z,15.20
2023-04-18T01:24:38.360Z,15.60
2023-04-18T01:26:45.242Z,15.50
2023-04-18T01:28:48.712Z,15.10
2023-04-18T01:30:57.723Z,15.00
2023-04-18T01:33:04.997Z,12.40
2023-04-18T01:35:10.715Z,14.60
2023-04-18T01:37:14.899Z,15.80
2023-04-18T01:39:19.688Z,18.90
2023-04-18T01:41:23.861Z,14.50
2023-04-18T01:43:28.135Z,16.90
2023-04-18T01:45:32.262Z,13.20
2023-04-18T01:47:37.667Z,14.90
2023-04-18T01:49:43.557Z,17.20
2023-04-18T01:51:51.702Z,14.60
2023-04-18T01:53:58.441Z,15.00
2023-04-18T01:56:04.984Z,15.80
2023-04-18T01:58:08.604Z,16.60
2023-04-18T02:00:15.417Z,14.40
2023-04-18T02:02:26.688Z,14.40
2023-04-18T02:04:38.382Z,15.30
2023-04-18T02:06:42.007Z,12.60
2023-04-18T02:08:45.092Z,12.40
2023-04-18T02:10:50.960Z,16.80
2023-04-18T02:12:59.165Z,16.90
2023-04-18T02:15:07.213Z,15.80
2023-04-18T02:17:13.049Z,18.30
2023-04-18T02:21:42.849Z,12.30
2023-04-18T02:23:54.927Z,17.60
2023-04-18T02:26:01.483Z,12.70
2023-04-18T02:28:08.055Z,13.90
2023-04-18T02:30:12.293Z,14.30
2023-04-18T02:32:21.136Z,11.60
2023-04-18T02:34:26.748Z,16.80
2023-04-18T02:36:31.189Z,17.40
2023-04-18T02:38:36.850Z,17.50
2023-04-18T02:40:41.723Z,16.90
2023-04-18T02:42:46.567Z,13.80
2023-04-18T02:44:52.311Z,15.60
2023-04-18T02:46:58.424Z,15.20
2023-04-18T02:49:03.075Z,16.10
2023-04-18T02:51:07.939Z,14.30
2023-04-18T02:53:15.066Z,14.40
2023-04-18T02:55:31.483Z,14.10
2023-04-18T02:57:36.303Z,14.80
2023-04-18T03:00:03.655Z,12.90
2023-04-18T03:02:44.956Z,18.10
2023-04-18T03:05:28.959Z,17.40
2023-04-18T03:07:36.890Z,14.00
2023-04-18T03:09:41.390Z,13.60
2023-04-18T03:12:02.241Z,14.40
2023-04-18T03:14:10.918Z,14.00
2023-04-18T03:16:44.612Z,15.90
2023-04-18T03:18:50.162Z,18.80
2023-04-18T03:21:09.378Z,15.40
2023-04-18T03:23:14.030Z,13.50
2023-04-18T03:25:22.675Z,18.70
2023-04-18T03:27:31.812Z,14.50
2023-04-18T03:29:36.491Z,16.60
2023-04-18T03:31:45.177Z,17.20
2023-04-18T03:33:48.417Z,19.00
2023-04-18T03:35:52.482Z,16.20
2023-04-18T03:37:56.321Z,15.90
2023-04-18T03:40:28.296Z,13.90
2023-04-18T03:42:44.779Z,14.10
2023-04-18T03:44:51.990Z,16.90
2023-04-18T03:46:59.072Z,17.30
2023-04-18T03:49:12.626Z,16.70
2023-04-18T03:51:28.333Z,18.00
2023-04-18T03:53:42.295Z,15.30
2023-04-18T03:55:52.169Z,22.50
2023-04-18T03:58:07.702Z,16.90
2023-04-18T04:00:13.837Z,17.00
2023-04-18T04:02:23.903Z,18.00
2023-04-18T04:04:28.000Z,11.20
2023-04-18T04:06:33.987Z,16.90
2023-04-18T04:08:52.534Z,16.50
2023-04-18T04:11:15.583Z,15.40
2023-04-18T04:13:29.413Z,16.40
2023-04-18T04:15:34.146Z,17.80
2023-04-18T04:17:46.500Z,15.20
2023-04-18T04:19:56.281Z,13.60
2023-04-18T04:22:27.696Z,16.80
2023-04-18T04:24:35.105Z,16.00
2023-04-18T04:26:40.653Z,14.00
2023-04-18T04:28:53.200Z,12.30
2023-04-18T04:31:01.100Z,12.90
2023-04-18T04:33:09.104Z,13.10
2023-04-18T04:37:30.058Z,15.50
2023-04-18T04:39:46.245Z,11.50
2023-04-18T04:42:26.200Z,15.90
2023-04-18T04:44:35.627Z,15.00
2023-04-18T04:46:40.581Z,12.30
2023-04-18T04:48:54.849Z,15.80
2023-04-18T04:51:00.373Z,14.30
2023-04-18T04:53:08.302Z,15.00
2023-04-18T04:55:13.926Z,12.50
2023-04-18T04:57:21.582Z,11.00
2023-04-18T04:59:24.626Z,15.00
2023-04-18T05:01:27.919Z,12.40
2023-04-18T05:03:31.345Z,13.30
2023-04-18T05:05:50.798Z,15.00
2023-04-18T05:07:54.374Z,12.40
2023-04-18T05:09:59.378Z,13.70
2023-04-18T05:12:06.530Z,12.40
2023-04-18T05:14:09.462Z,16.10
2023-04-18T05:16:13.330Z,11.70
2023-04-18T05:18:24.900Z,14.10
2023-04-18T05:20:31.641Z,9.10
2023-04-18T05:22:41.350Z,7.70
2023-04-18T05:24:44.830Z,13.30
2023-04-18T05:26:49.206Z,12.20
2023-04-18T05:28:54.225Z,14.30
2023-04-18T05:31:16.949Z,14.10
2023-04-18T05:33:20.898Z,13.40
2023-04-18T05:35:23.691Z,13.60
2023-04-18T05:37:26.769Z,12.20
2023-04-18T05:39:29.453Z,12.20
2023-04-18T05:41:32.559Z,15.40
2023-04-18T05:43:35.344Z,12.70
2023-04-18T05:45:38.715Z,10.80
2023-04-18T05:47:41.548Z,10.10
2023-04-18T05:49:45.045Z,8.90
2023-04-18T05:51:50.349Z,13.90
2023-04-18T05:53:53.104Z,11.20
2023-04-18T05:55:59.337Z,10.80
2023-04-18T05:58:02.431Z,6.80
2023-04-18T06:00:08.484Z,7.90
2023-04-18T06:02:32.538Z,10.40
2023-04-18T06:04:48.485Z,9.70
2023-04-18T06:06:55.089Z,13.20
2023-04-18T06:08:59.330Z,10.20
2023-04-18T06:11:09.862Z,12.60
2023-04-18T06:13:19.558Z,13.70
2023-04-18T06:15:29.894Z,11.90
2023-04-18T06:17:37.552Z,8.70
2023-04-18T06:19:43.316Z,7.70
2023-04-18T06:21:49.956Z,14.00
2023-04-18T06:23:58.202Z,11.90
2023-04-18T06:26:07.018Z,11.10
2023-04-18T06:28:17.240Z,11.80
2023-04-18T06:30:22.254Z,7.30
2023-04-18T06:32:26.954Z,12.30
2023-04-18T06:34:35.515Z,11.30
2023-04-18T06:36:40.780Z,13.40
2023-04-18T06:38:44.907Z,11.10
2023-04-18T06:40:47.626Z,13.90
2023-04-18T06:42:55.028Z,14.60
2023-04-18T06:44:58.007Z,13.50
2023-04-18T06:47:03.142Z,14.30
2023-04-18T06:49:06.197Z,14.00
2023-04-18T06:51:11.077Z,12.60
2023-04-18T06:53:16.098Z,11.00
2023-04-18T06:55:18.882Z,14.40
2023-04-18T06:57:22.053Z,11.10
2023-04-18T06:59:25.411Z,13.00
2023-04-18T07:01:33.914Z,12.10
2023-04-18T07:03:36.956Z,10.10
2023-04-18T07:05:41.003Z,12.20
2023-04-18T07:07:46.610Z,16.50
2023-04-18T07:10:02.806Z,15.60
2023-04-18T07:12:07.330Z,14.20
2023-04-18T07:14:12.259Z,13.70
2023-04-18T07:16:16.677Z,11.80
2023-04-18T07:18:34.140Z,8.70
2023-04-18T07:20:44.057Z,13.20
2023-04-18T07:22:56.970Z,13.20
2023-04-18T07:25:00.493Z,11.50
2023-04-18T07:27:19.275Z,17.20
2023-04-18T07:29:25.004Z,16.10
2023-04-18T07:31:28.951Z,11.90
2023-04-18T07:33:39.515Z,13.10
2023-04-18T07:35:45.943Z,11.00
2023-04-18T07:37:48.937Z,12.00
2023-04-18T07:39:52.568Z,13.20
2023-04-18T07:42:02.095Z,17.00
2023-04-18T07:44:08.337Z,16.50
2023-04-18T07:46:16.417Z,14.30
2023-04-18T07:48:23.482Z,14.50
2023-04-18T07:50:30.598Z,12.30
2023-04-18T07:52:34.178Z,17.10
2023-04-18T07:54:38.125Z,15.80
2023-04-18T07:56:41.206Z,19.80
2023-04-18T07:58:45.664Z,17.90
2023-04-18T08:00:49.309Z,13.70
2023-04-18T08:02:53.105Z,15.90
2023-04-18T08:04:58.762Z,13.90
2023-04-18T08:07:02.127Z,14.70
2023-04-18T08:09:09.508Z,13.80
2023-04-18T08:11:13.319Z,15.90
2023-04-18T08:13:18.248Z,10.80
2023-04-18T08:15:43.545Z,16.90
2023-04-18T08:17:49.194Z,18.60
2023-04-18T08:19:54.659Z,15.90
2023-04-18T08:22:11.327Z,16.60
2023-04-18T08:24:41.699Z,10.10
2023-04-18T08:26:52.024Z,18.10
2023-04-18T08:28:57.797Z,19.60
2023-04-18T08:31:00.853Z,18.20
2023-04-18T08:33:09.979Z,17.20
2023-04-18T08:35:14.010Z,20.00
2023-04-18T08:37:19.448Z,19.40
2023-04-18T08:39:27.628Z,23.80
2023-04-18T08:41:36.953Z,19.90
2023-04-18T08:43:42.734Z,19.40
2023-04-18T08:45:59.247Z,18.60
2023-04-18T08:48:06.244Z,18.60
2023-04-18T08:50:12.788Z,15.70
2023-04-18T08:52:27.436Z,17.20
2023-04-18T08:54:34.002Z,15.70
2023-04-18T08:56:39.212Z,21.20
2023-04-18T08:58:47.021Z,17.70
2023-04-18T09:00:52.094Z,17.80
2023-04-18T09:02:57.815Z,19.30
2023-04-18T09:05:26.121Z,24.10
2023-04-18T09:07:36.131Z,19.30
2023-04-18T09:09:49.143Z,17.00
2023-04-18T09:12:12.069Z,18.20
2023-04-18T09:14:26.449Z,21.20
2023-04-18T09:16:47.055Z,17.70
2023-04-18T09:19:10.710Z,23.10
2023-04-18T09:21:23.801Z,12.30
2023-04-18T09:23:32.710Z,14.20
2023-04-18T09:25:50.990Z,23.20
2023-04-18T09:28:01.509Z,23.70
2023-04-18T09:30:33.707Z,18.20
2023-04-18T09:32:41.173Z,26.90
2023-04-18T09:34:47.365Z,22.60
2023-04-18T09:37:08.051Z,23.30
2023-04-18T09:39:27.458Z,19.80
2023-04-18T09:41:31.402Z,21.00
2023-04-18T09:43:40.854Z,14.90
2023-04-18T09:45:44.598Z,20.20
2023-04-18T09:47:49.647Z,19.50
2023-04-18T09:49:54.507Z,18.10
2023-04-18T09:52:00.372Z,11.40
2023-04-18T09:56:35.496Z,17.70
2023-04-18T09:58:42.567Z,8.00
2023-04-18T10:00:50.335Z,11.90
2023-04-18T10:03:18.712Z,18.40
2023-04-18T10:05:25.465Z,20.90
2023-04-18T10:07:34.941Z,19.70
2023-04-18T10:09:41.045Z,21.90
2023-04-18T10:11:46.003Z,19.30
2023-04-18T10:13:53.824Z,22.00
2023-04-18T10:16:03.733Z,23.10
2023-04-18T10:18:18.658Z,20.40
2023-04-18T10:20:25.253Z,12.40
2023-04-18T10:22:34.070Z,19.10
2023-04-18T10:24:53.871Z,8.30
2023-04-18T10:26:58.544Z,14.10
2023-04-18T10:29:09.710Z,20.80
2023-04-18T10:31:25.800Z,16.80
2023-04-18T10:33:41.007Z,19.30
2023-04-18T10:36:02.964Z,11.70
2023-04-18T10:38:16.646Z,21.40
2023-04-18T10:40:36.757Z,15.90
2023-04-18T10:42:47.675Z,15.80
2023-04-18T10:45:40.134Z,16.10
2023-04-18T10:47:46.978Z,20.10
2023-04-18T10:49:56.300Z,16.70
2023-04-18T10:52:01.870Z,15.10
2023-04-18T10:54:09.951Z,18.50
2023-04-18T10:56:17.203Z,10.70
2023-04-18T10:58:22.439Z,13.30
2023-04-18T11:00:43.876Z,10.70
2023-04-18T11:03:05.609Z,13.90
2023-04-18T11:05:11.548Z,17.10
2023-04-18T11:07:17.886Z,15.00
2023-04-18T11:09:21.360Z,19.10
2023-04-18T11:12:10.641Z,18.70
2023-04-18T11:14:23.461Z,17.30
2023-04-18T11:16:38.734Z,18.70
2023-04-18T11:18:42.610Z,15.80
2023-04-18T11:20:52.215Z,17.20
2023-04-18T11:22:58.728Z,16.80
2023-04-18T11:25:08.076Z,19.50
2023-04-18T11:27:14.729Z,18.80
2023-04-18T11:29:18.211Z,21.00
2023-04-18T11:31:25.385Z,18.80
2023-04-18T11:33:30.481Z,13.90
2023-04-18T11:35:44.933Z,17.20
2023-04-18T11:38:04.138Z,19.90
2023-04-18T11:40:13.532Z,19.60
2023-04-18T11:42:18.307Z,15.50
2023-04-18T11:44:26.776Z,16.60
2023-04-18T11:49:30.908Z,16.70
2023-04-18T11:51:48.320Z,9.60
2023-04-18T11:53:52.653Z,20.80
2023-04-18T11:56:22.546Z,17.00
2023-04-18T11:58:42.265Z,17.10
2023-04-18T12:00:46.840Z,18.00
2023-04-18T12:02:56.723Z,17.30
2023-04-18T12:05:30.998Z,12.70
2023-04-18T12:07:37.709Z,9.50
2023-04-18T12:09:43.929Z,12.90
2023-04-18T12:12:19.621Z,14.60
2023-04-18T12:14:38.817Z,13.90
2023-04-18T12:16:44.365Z,15.60
2023-04-18T12:18:48.355Z,15.70
2023-04-18T12:20:54.379Z,18.90
2023-04-18T12:23:00.917Z,14.00
2023-04-18T12:25:38.877Z,17.40
2023-04-18T12:28:06.883Z,12.30
2023-04-18T12:30:10.587Z,10.40
2023-04-18T12:32:13.561Z,14.20
2023-04-18T12:34:19.289Z,14.20
2023-04-18T12:36:29.243Z,16.70
2023-04-18T12:38:44.839Z,13.60
2023-04-18T12:40:54.929Z,16.40
2023-04-18T12:42:57.991Z,14.60
2023-04-18T12:45:03.811Z,15.30
2023-04-18T12:47:08.657Z,9.50
2023-04-18T12:49:16.713Z,16.30
2023-04-18T12:51:25.940Z,14.30
2023-04-18T12:53:37.904Z,16.10
2023-04-18T12:57:47.659Z,15.80
2023-04-18T12:59:51.180Z,12.90
2023-04-18T13:01:57.464Z,20.80
2023-04-18T13:04:12.289Z,16.80
2023-04-18T13:06:17.364Z,16.00
2023-04-18T13:08:23.735Z,14.40
2023-04-18T13:12:43.308Z,20.00
2023-04-18T13:14:55.960Z,7.70
2023-04-18T13:17:01.543Z,16.10
2023-04-18T13:19:10.260Z,22.70
2023-04-18T13:21:25.254Z,22.40
2023-04-18T13:23:37.645Z,18.90
2023-04-18T13:25:44.397Z,23.10
2023-04-18T13:27:53.087Z,23.80
2023-04-18T13:30:04.979Z,22.40
2023-04-18T13:32:18.321Z,16.20
2023-04-18T13:34:26.481Z,22.80
2023-04-18T13:36:30.011Z,20.40
2023-04-18T13:38:34.749Z,23.30
2023-04-18T13:40:40.712Z,23.00
2023-04-18T13:42:53.320Z,23.50
2023-04-18T13:45:05.877Z,26.20
2023-04-18T13:47:15.950Z,23.90
2023-04-18T13:49:27.686Z,23.30
2023-04-18T13:51:52.933Z,30.90
2023-04-18T13:53:57.062Z,22.90
2023-04-18T13:56:01.867Z,26.90
2023-04-18T13:58:11.817Z,21.40
2023-04-18T14:00:17.275Z,29.30
2023-04-18T14:02:20.721Z,18.50
2023-04-18T14:04:32.901Z,25.90
2023-04-18T14:06:53.358Z,34.80
2023-04-18T14:09:02.332Z,23.60
2023-04-18T14:11:07.389Z,28.30
2023-04-18T14:13:12.849Z,32.80
2023-04-18T14:15:19.951Z,17.30
2023-04-18T14:17:22.982Z,19.50
2023-04-18T14:19:27.013Z,29.90
2023-04-18T14:21:39.277Z,35.80
2023-04-18T14:24:00.566Z,21.10
2023-04-18T14:26:05.912Z,26.20
2023-04-18T14:28:11.883Z,24.10
2023-04-18T14:30:20.946Z,30.70
2023-04-18T14:32:27.241Z,19.20
2023-04-18T14:34:38.226Z,19.60
2023-04-18T14:36:55.408Z,28.90
2023-04-18T14:39:03.627Z,24.90
2023-04-18T14:41:07.401Z,29.80
2023-04-18T14:43:10.680Z,25.90
2023-04-18T14:45:16.517Z,32.70
2023-04-18T14:47:19.945Z,23.40
2023-04-18T14:49:23.401Z,27.70
2023-04-18T14:51:26.519Z,34.00
2023-04-18T14:53:31.117Z,20.50
2023-04-18T14:55:34.730Z,24.20
2023-04-18T14:58:00.105Z,30.30
2023-04-18T15:00:11.005Z,15.10
2023-04-18T15:02:25.037Z,28.10
2023-04-18T15:04:29.048Z,27.00
2023-04-18T15:06:34.847Z,25.00
2023-04-18T15:08:37.862Z,24.90
2023-04-18T15:10:56.921Z,29.60
2023-04-18T15:13:00.221Z,29.20
2023-04-18T15:15:07.376Z,22.10
2023-04-18T15:17:22.049Z,28.30
2023-04-18T15:19:35.363Z,19.30
2023-04-18T15:21:40.826Z,25.10
2023-04-18T15:23:45.452Z,27.60
2023-04-18T15:25:50.388Z,22.60
2023-04-18T15:27:54.893Z,30.00
2023-04-18T15:30:02.886Z,26.60
2023-04-18T15:32:28.865Z,28.00
2023-04-18T15:34:32.734Z,26.70
2023-04-18T15:36:38.151Z,30.60
2023-04-18T15:38:45.460Z,20.40
2023-04-18T15:40:51.991Z,31.20
2023-04-18T15:43:00.759Z,32.00
2023-04-18T15:45:24.634Z,34.30
2023-04-18T15:47:42.972Z,28.50
2023-04-18T15:49:50.464Z,31.30
2023-04-18T15:51:54.949Z,31.20
2023-04-18T15:54:07.996Z,33.80
2023-04-18T15:56:17.912Z,25.70
2023-04-18T15:58:32.903Z,16.30
2023-04-18T16:00:42.832Z,25.20
2023-04-18T16:02:50.878Z,19.20
2023-04-18T16:04:56.169Z,22.40
2023-04-18T16:07:49.138Z,28.00
2023-04-18T16:09:55.285Z,25.40
2023-04-18T16:11:58.445Z,22.80
2023-04-18T16:14:13.936Z,30.70
2023-04-18T16:16:17.884Z,20.90
2023-04-18T16:18:23.316Z,32.80
2023-04-18T16:20:30.221Z,27.40
2023-04-18T16:22:41.443Z,26.50
2023-04-18T16:25:04.364Z,26.50
2023-04-18T16:27:36.078Z,24.70
2023-04-18T16:29:41.309Z,25.80
2023-04-18T16:31:48.116Z,24.40
2023-04-18T16:34:16.987Z,23.30
2023-04-18T16:36:24.006Z,23.90
2023-04-18T16:38:33.844Z,22.90
2023-04-18T16:40:41.330Z,24.00
2023-04-18T16:42:58.265Z,24.20
2023-04-18T16:45:26.033Z,22.60
2023-04-18T16:47:29.910Z,22.40
2023-04-18T16:49:36.935Z,25.90
2023-04-18T16:51:42.374Z,28.70
2023-04-18T16:53:47.104Z,27.90
2023-04-18T16:55:56.463Z,24.00
2023-04-18T16:57:59.524Z,24.90
2023-04-18T17:02:36.188Z,21.10
2023-04-18T17:05:06.566Z,29.50
2023-04-18T17:07:11.410Z,25.10
2023-04-18T17:09:18.180Z,22.10
2023-04-18T17:11:28.473Z,23.60
2023-04-18T17:13:32.353Z,21.40
2023-04-18T17:15:37.109Z,25.10
2023-04-18T17:17:46.952Z,24.70
2023-04-18T17:20:01.575Z,22.20
2023-04-18T17:22:07.992Z,17.20
2023-04-18T17:24:16.068Z,20.60
2023-04-18T17:26:28.855Z,17.60
2023-04-18T17:28:36.331Z,20.60
2023-04-18T17:30:42.648Z,20.30
2023-04-18T17:33:00.873Z,18.10
2023-04-18T17:35:35.189Z,15.50
2023-04-18T17:37:42.160Z,17.10
2023-04-18T17:39:59.103Z,19.70
2023-04-18T17:42:05.538Z,20.40
2023-04-18T17:44:11.176Z,19.80
2023-04-18T17:46:26.553Z,17.60
2023-04-18T17:48:35.062Z,15.10
2023-04-18T17:50:54.929Z,15.30
2023-04-18T17:52:58.562Z,19.70
2023-04-18T17:55:07.426Z,18.40
2023-04-18T17:57:14.533Z,21.90
2023-04-18T17:59:18.539Z,19.00
2023-04-18T18:01:48.810Z,19.80
2023-04-18T18:03:58.365Z,20.10
2023-04-18T18:06:08.422Z,21.00
2023-04-18T18:10:25.657Z,21.50
2023-04-18T18:12:32.590Z,17.30
2023-04-18T18:14:40.414Z,20.60
2023-04-18T18:16:50.541Z,22.30
2023-04-18T18:21:30.067Z,17.90
2023-04-18T18:23:35.991Z,24.70
2023-04-18T18:25:41.565Z,17.50
2023-04-18T18:27:53.327Z,16.10
2023-04-18T18:29:57.038Z,23.00
2023-04-18T18:32:04.007Z,21.50
2023-04-18T18:34:17.638Z,23.00
2023-04-18T18:36:54.371Z,17.50
2023-04-18T18:38:59.192Z,17.50
2023-04-18T18:41:05.286Z,21.60
2023-04-18T18:43:08.139Z,18.50
2023-04-18T18:45:15.553Z,19.80
2023-04-18T18:47:19.411Z,19.20
2023-04-18T18:49:47.886Z,21.40
2023-04-18T18:51:54.609Z,19.50
2023-04-18T18:53:57.411Z,17.40
2023-04-18T18:56:01.184Z,21.70
2023-04-18T18:58:07.829Z,22.30
2023-04-18T19:00:23.620Z,22.30
2023-04-18T19:02:34.551Z,23.00
2023-04-18T19:04:41.618Z,17.20
2023-04-18T19:06:57.226Z,20.10
2023-04-18T19:09:11.895Z,20.00
2023-04-18T19:11:16.225Z,18.30
2023-04-18T19:13:25.397Z,17.80
2023-04-18T19:15:31.368Z,14.00
2023-04-18T19:17:36.837Z,18.30
2023-04-18T19:19:49.729Z,16.60
2023-04-18T19:21:54.955Z,15.30
2023-04-18T19:24:03.990Z,18.20
2023-04-18T19:26:18.042Z,17.70
2023-04-18T19:28:27.755Z,14.40
2023-04-18T19:30:33.219Z,14.50
2023-04-18T19:32:39.322Z,12.50
2023-04-18T19:34:44.610Z,16.40
2023-04-18T19:37:05.215Z,15.20
2023-04-18T19:39:12.103Z,13.60
2023-04-18T19:41:15.516Z,15.40
2023-04-18T19:43:34.294Z,14.40
2023-04-18T19:45:41.274Z,14.10
2023-04-18T19:47:50.181Z,15.40
2023-04-18T19:50:00.443Z,16.40
2023-04-18T19:52:06.490Z,14.60
2023-04-18T19:54:20.292Z,14.00
2023-04-18T19:56:25.702Z,13.70
2023-04-18T19:58:45.884Z,13.50
2023-04-18T20:01:05.514Z,13.50
2023-04-18T20:03:13.454Z,14.50
2023-04-18T20:05:18.651Z,15.10
2023-04-18T20:07:26.014Z,13.80
2023-04-18T20:09:31.047Z,12.10
2023-04-18T20:11:35.971Z,9.90
2023-04-18T20:13:41.561Z,11.70
2023-04-18T20:15:54.370Z,11.90
2023-04-18T20:17:57.560Z,11.90
2023-04-18T20:20:06.571Z,13.40
2023-04-18T20:22:17.412Z,13.00
2023-04-18T20:24:46.461Z,15.50
2023-04-18T20:26:52.339Z,11.30
2023-04-18T20:28:59.265Z,13.40
2023-04-18T20:31:08.416Z,14.00
2023-04-18T20:33:12.760Z,11.10
2023-04-18T20:35:25.306Z,13.40
2023-04-18T20:37:37.331Z,10.40
2023-04-18T20:40:13.251Z,14.80
2023-04-18T20:42:17.761Z,11.50
2023-04-18T20:44:22.490Z,13.50
2023-04-18T20:46:28.392Z,13.30
2023-04-18T20:48:35.458Z,14.10
2023-04-18T20:50:41.173Z,12.30
2023-04-18T20:52:46.673Z,13.40
2023-04-18T20:54:50.852Z,12.70
2023-04-18T20:57:02.337Z,10.80
2023-04-18T20:59:06.621Z,15.00
2023-04-18T21:01:38.486Z,14.50
2023-04-18T21:03:43.738Z,13.10
2023-04-18T21:05:55.568Z,15.30
2023-04-18T21:08:02.814Z,13.40
2023-04-18T21:10:14.468Z,13.40
2023-04-18T21:12:18.850Z,14.60
2023-04-18T21:14:28.212Z,14.80
2023-04-18T21:16:42.536Z,12.20
2023-04-18T21:18:49.431Z,13.80
2023-04-18T21:20:57.292Z,14.80
2023-04-18T21:23:11.968Z,12.60
2023-04-18T21:25:22.354Z,14.20
2023-04-18T21:27:50.324Z,15.40
2023-04-18T21:30:19.681Z,17.90
2023-04-18T21:32:24.774Z,14.80
2023-04-18T21:34:42.848Z,11.10
2023-04-18T21:36:46.410Z,12.30
2023-04-18T21:38:57.730Z,14.50
2023-04-18T21:43:26.483Z,10.20
2023-04-18T21:45:39.915Z,15.60
2023-04-18T21:47:47.105Z,14.50
2023-04-18T21:52:03.774Z,14.60
2023-04-18T21:54:09.286Z,15.90
2023-04-18T21:56:14.277Z,13.40
2023-04-18T21:58:41.499Z,14.90
2023-04-18T22:00:44.537Z,17.20
2023-04-18T22:02:50.638Z,13.20
2023-04-18T22:04:57.618Z,17.20
2023-04-18T22:07:02.652Z,15.10
2023-04-18T22:11:39.842Z,18.70
2023-04-18T22:13:45.794Z,16.40
2023-04-18T22:18:23.735Z,22.10
2023-04-18T22:20:32.291Z,16.20
2023-04-18T22:22:44.516Z,20.80
2023-04-18T22:24:48.638Z,20.20
2023-04-18T22:26:53.760Z,19.50
2023-04-18T22:29:46.981Z,16.90
2023-04-18T22:31:34.367Z,21.30
2023-04-18T22:33:38.812Z,17.90
2023-04-18T22:35:43.475Z,18.10
2023-04-18T22:37:48.364Z,16.20
2023-04-18T22:39:55.034Z,20.70
2023-04-18T22:42:01.185Z,18.00
2023-04-18T22:44:06.690Z,18.40
2023-04-18T22:46:12.754Z,26.20
2023-04-18T22:48:19.126Z,17.80
2023-04-18T22:50:24.699Z,21.10
2023-04-18T22:52:28.026Z,22.20
2023-04-18T22:54:56.506Z,22.80
2023-04-18T22:57:06.556Z,19.40
2023-04-18T22:59:14.445Z,23.00
2023-04-18T23:01:19.628Z,20.90
2023-04-18T23:03:39.896Z,22.20
2023-04-18T23:05:43.743Z,25.40
2023-04-18T23:07:46.652Z,20.20
2023-04-18T23:09:50.187Z,27.40
2023-04-18T23:11:53.956Z,29.20
2023-04-18T23:13:57.381Z,28.10
2023-04-18T23:16:04.823Z,28.20
2023-04-18T23:18:12.765Z,23.90
2023-04-18T23:20:19.980Z,24.10
2023-04-18T23:22:53.057Z,22.60
2023-04-18T23:25:02.950Z,26.10
2023-04-18T23:27:08.084Z,26.80
2023-04-18T23:29:20.757Z,23.10
2023-04-18T23:32:10.897Z,24.40
2023-04-18T23:34:15.012Z,26.30
2023-04-18T23:36:29.157Z,24.30
2023-04-18T23:38:41.253Z,26.90
2023-04-18T23:40:45.424Z,22.80
2023-04-18T23:42:48.929Z,25.60
2023-04-18T23:45:08.206Z,26.80
2023-04-18T23:47:12.884Z,26.20
2023-04-18T23:49:24.161Z,29.00
2023-04-18T23:51:27.863Z,22.00
2023-04-18T23:53:34.242Z,22.60
2023-04-18T23:55:38.617Z,21.60
2023-04-18T23:57:42.698Z,22.10
2023-04-18T23:59:57.935Z,21.40
